Time;durP1;ratioP1;P1;durP2;ratioP2;P2;SDS_P1;SDS_P2;PMS_P1;PMS_P2;Temp;Humidity;BMP_temperature;BMP_pressure;BME280_temperature;BME280_humidity;BME280_pressure;Samples;Min_cycle;Max_cycle;Signal;HPM_P1;HPM_P2
2022/06/29 00:00:55;;;;;;;10.88;5.45;;;16.10;99.90;;;;;;4959348;28;20525;-81
2022/06/29 00:03:42;;;;;;;12.20;5.38;;;16.10;99.90;;;;;;5012318;28;20379;-79
2022/06/29 00:06:28;;;;;;;15.13;6.25;;;16.10;99.90;;;;;;5013232;28;20497;-81
2022/06/29 00:09:14;;;;;;;11.70;6.10;;;16.10;99.90;;;;;;5012401;28;20056;-81
2022/06/29 00:12:00;;;;;;;13.30;6.47;;;16.10;99.90;;;;;;5012329;28;20056;-80
2022/06/29 00:14:46;;;;;;;11.32;6.25;;;16.10;99.90;;;;;;4994577;28;20133;-81
2022/06/29 00:17:33;;;;;;;9.23;6.22;;;16.10;99.90;;;;;;4994148;28;20053;-81
2022/06/29 00:20:20;;;;;;;9.45;5.95;;;16.00;99.90;;;;;;5011790;28;20410;-81
2022/06/29 00:23:06;;;;;;;7.90;5.88;;;16.00;99.90;;;;;;5011503;28;20050;-80
2022/06/29 00:25:52;;;;;;;8.80;5.47;;;16.00;99.90;;;;;;4981038;28;20049;-81
2022/06/29 00:28:38;;;;;;;10.15;6.45;;;16.00;99.90;;;;;;4994764;28;20494;-82
2022/06/29 00:31:24;;;;;;;11.68;6.18;;;16.00;99.90;;;;;;4996395;28;20075;-81
2022/06/29 00:34:11;;;;;;;9.18;6.15;;;16.00;99.90;;;;;;4993328;28;20049;-81
2022/06/29 00:36:57;;;;;;;10.10;5.85;;;16.00;99.90;;;;;;4996771;28;20049;-81
2022/06/29 00:39:43;;;;;;;10.45;6.72;;;16.00;99.90;;;;;;4993492;28;20042;-81
2022/06/29 00:42:31;;;;;;;12.00;6.38;;;16.00;99.90;;;;;;4993636;28;20172;-81
2022/06/29 00:45:17;;;;;;;13.15;7.07;;;16.00;99.90;;;;;;5011266;28;20050;-81
2022/06/29 00:48:04;;;;;;;10.95;6.22;;;16.10;99.90;;;;;;5010536;28;20064;-83
2022/06/29 00:50:51;;;;;;;9.13;5.72;;;16.10;99.90;;;;;;5012121;28;20052;-81
2022/06/29 00:53:40;;;;;;;9.45;5.97;;;16.10;99.90;;;;;;5010373;28;20050;-82
2022/06/29 00:56:27;;;;;;;9.15;6.03;;;16.10;99.90;;;;;;4994430;28;20053;-81
2022/06/29 00:59:19;;;;;;;10.63;6.60;;;16.10;99.90;;;;;;5012627;28;20482;-81
2022/06/29 01:02:06;;;;;;;13.23;6.53;;;16.10;99.90;;;;;;4995616;28;20650;-82
2022/06/29 01:04:52;;;;;;;11.40;6.28;;;16.10;99.90;;;;;;4980291;28;20077;-81
2022/06/29 01:07:38;;;;;;;10.40;6.47;;;16.10;99.90;;;;;;5010517;28;20092;-81
2022/06/29 01:10:25;;;;;;;11.57;7.75;;;16.10;99.90;;;;;;5010911;28;20042;-81
2022/06/29 01:13:11;;;;;;;9.35;6.43;;;16.10;99.90;;;;;;5010803;28;20224;-81
2022/06/29 01:15:57;;;;;;;8.85;6.07;;;16.00;99.90;;;;;;5011118;28;20084;-81
2022/06/29 01:18:43;;;;;;;9.18;6.60;;;16.00;99.90;;;;;;5010187;28;20046;-81
2022/06/29 01:21:31;;;;;;;9.48;6.65;;;15.90;99.90;;;;;;5014617;28;20072;-81
2022/06/29 01:24:21;;;;;;;11.93;6.53;;;15.90;99.90;;;;;;4997280;28;20049;-81
2022/06/29 01:27:08;;;;;;;9.57;6.93;;;15.90;99.90;;;;;;5014036;28;20053;-81
2022/06/29 01:29:54;;;;;;;15.55;7.90;;;15.80;99.90;;;;;;5014356;28;20050;-80
2022/06/29 01:32:40;;;;;;;11.85;7.68;;;15.70;99.90;;;;;;4996920;28;20062;-81
2022/06/29 01:35:26;;;;;;;11.20;8.15;;;15.70;99.90;;;;;;4997175;28;20081;-81
2022/06/29 01:38:12;;;;;;;15.57;8.88;;;15.60;99.90;;;;;;4997074;28;20146;-81
2022/06/29 01:40:59;;;;;;;11.75;7.47;;;15.60;99.90;;;;;;5013956;28;20042;-81
2022/06/29 01:43:45;;;;;;;15.27;7.72;;;15.50;99.90;;;;;;5014423;28;20050;-82
2022/06/29 01:46:31;;;;;;;13.60;7.65;;;15.50;99.90;;;;;;4997099;28;20100;-82
2022/06/29 01:49:18;;;;;;;11.18;7.65;;;15.50;99.90;;;;;;5014011;28;20060;-81
2022/06/29 01:52:04;;;;;;;12.23;8.70;;;15.40;99.90;;;;;;5013881;28;20060;-81
2022/06/29 01:54:50;;;;;;;11.70;9.15;;;15.40;99.90;;;;;;5013733;28;20046;-81
2022/06/29 01:57:36;;;;;;;9.68;6.97;;;15.40;99.90;;;;;;5014043;28;20144;-81
2022/06/29 02:00:23;;;;;;;11.82;8.35;;;15.40;99.90;;;;;;5013594;28;20117;-81
2022/06/29 02:03:09;;;;;;;12.20;7.88;;;15.40;99.90;;;;;;4983352;28;20057;-81
2022/06/29 02:05:55;;;;;;;14.60;9.82;;;15.30;99.90;;;;;;4999410;28;20096;-82
2022/06/29 02:08:41;;;;;;;11.73;8.82;;;15.30;99.90;;;;;;5013268;28;20387;-81
2022/06/29 02:11:28;;;;;;;10.73;9.05;;;15.30;99.90;;;;;;5013386;28;20053;-81
2022/06/29 02:14:14;;;;;;;11.82;8.48;;;15.30;99.90;;;;;;4996572;28;20517;-81
2022/06/29 02:17:00;;;;;;;13.88;8.73;;;15.20;99.90;;;;;;5013566;28;20057;-81
2022/06/29 02:19:46;;;;;;;14.57;9.10;;;15.20;99.90;;;;;;4996398;28;20441;-81
2022/06/29 02:22:33;;;;;;;10.20;7.88;;;15.20;99.90;;;;;;4999197;28;20169;-81
2022/06/29 02:25:19;;;;;;;10.57;8.50;;;15.20;99.90;;;;;;4995757;28;20058;-81
2022/06/29 02:28:06;;;;;;;12.48;8.23;;;15.10;99.90;;;;;;4982425;28;20147;-80
2022/06/29 02:37:01;;;;;;;11.52;7.32;;;15.10;99.90;;;;;;5013384;28;20107;-81
2022/06/29 02:39:47;;;;;;;11.55;8.30;;;15.10;99.90;;;;;;5012987;28;20153;-81
2022/06/29 02:42:33;;;;;;;12.05;8.40;;;15.10;99.90;;;;;;5012830;28;20119;-82
2022/06/29 02:45:19;;;;;;;12.90;7.38;;;15.10;99.90;;;;;;5013171;28;20053;-81
2022/06/29 02:48:06;;;;;;;13.00;8.23;;;15.10;99.90;;;;;;5013035;28;20144;-81
2022/06/29 02:50:52;;;;;;;10.82;7.75;;;15.10;99.90;;;;;;5013018;28;20041;-81
2022/06/29 02:53:38;;;;;;;10.70;7.47;;;15.20;99.90;;;;;;4995920;28;20129;-81
2022/06/29 02:56:24;;;;;;;11.32;6.90;;;15.20;99.90;;;;;;4995228;28;20104;-81
2022/06/29 02:59:10;;;;;;;9.82;6.68;;;15.30;99.90;;;;;;5013056;28;20046;-81
2022/06/29 03:01:57;;;;;;;8.68;7.38;;;15.30;99.90;;;;;;5013165;28;20058;-81
2022/06/29 03:04:43;;;;;;;8.82;6.13;;;15.30;99.90;;;;;;4995626;28;20050;-81
2022/06/29 03:07:29;;;;;;;11.45;6.68;;;15.40;99.90;;;;;;5012662;28;20062;-81
2022/06/29 03:10:15;;;;;;;11.05;7.18;;;15.40;99.90;;;;;;5012732;28;20054;-81
2022/06/29 03:13:01;;;;;;;13.02;6.82;;;15.50;99.90;;;;;;5012788;28;20046;-81
2022/06/29 03:15:47;;;;;;;12.38;6.90;;;15.50;99.90;;;;;;5012129;28;20060;-81
2022/06/29 03:18:34;;;;;;;10.48;6.93;;;15.50;99.90;;;;;;5012396;28;20141;-81
2022/06/29 03:21:20;;;;;;;9.60;6.65;;;15.50;99.90;;;;;;5012603;28;20423;-81
2022/06/29 03:24:06;;;;;;;11.10;6.32;;;15.60;99.90;;;;;;5012707;28;20412;-81
2022/06/29 03:26:52;;;;;;;11.23;7.30;;;15.60;99.90;;;;;;4995135;28;20058;-81
2022/06/29 03:29:38;;;;;;;11.82;7.15;;;15.60;99.90;;;;;;4995851;28;20108;-81
2022/06/29 03:32:25;;;;;;;9.20;6.47;;;15.60;99.90;;;;;;4995037;28;20744;-81
2022/06/29 03:35:11;;;;;;;8.40;6.72;;;15.60;99.90;;;;;;4994402;28;20083;-80
2022/06/29 03:37:57;;;;;;;11.80;6.40;;;15.60;99.90;;;;;;5011950;28;20054;-81
2022/06/29 03:40:43;;;;;;;10.80;6.40;;;15.70;99.90;;;;;;4995205;28;20053;-81
2022/06/29 03:43:30;;;;;;;10.95;6.60;;;15.70;99.90;;;;;;4993911;28;20057;-80
2022/06/29 03:46:16;;;;;;;11.30;7.07;;;15.70;99.90;;;;;;5012341;28;20053;-81
2022/06/29 03:49:02;;;;;;;12.00;6.78;;;15.70;99.90;;;;;;4994422;28;20054;-80
2022/06/29 03:51:48;;;;;;;12.35;8.05;;;15.80;99.90;;;;;;4994638;28;20046;-81
2022/06/29 03:54:34;;;;;;;8.95;6.50;;;15.80;99.90;;;;;;4994192;28;20136;-81
2022/06/29 03:57:20;;;;;;;8.38;6.80;;;15.80;99.90;;;;;;5011809;28;20080;-80
2022/06/29 04:00:07;;;;;;;11.35;6.70;;;15.80;99.90;;;;;;4983851;28;20073;-81
2022/06/29 04:02:54;;;;;;;9.63;6.60;;;15.80;99.90;;;;;;4993904;28;20050;-81
2022/06/29 04:05:40;;;;;;;9.88;6.35;;;15.80;99.90;;;;;;4997539;28;20165;-81
2022/06/29 04:08:26;;;;;;;12.00;6.25;;;15.80;99.90;;;;;;5011430;28;20438;-81
2022/06/29 04:14:19;;;;;;;10.37;7.00;;;15.80;99.90;;;;;;5012174;28;20056;-81
2022/06/29 04:17:05;;;;;;;10.05;6.15;;;15.90;99.90;;;;;;5011529;28;20171;-81
2022/06/29 04:19:51;;;;;;;11.02;6.47;;;15.90;99.90;;;;;;4994527;28;20744;-80
2022/06/29 04:22:37;;;;;;;10.60;6.85;;;15.90;99.90;;;;;;5011494;28;20048;-81
2022/06/29 04:25:23;;;;;;;10.65;6.20;;;16.00;99.90;;;;;;5011333;28;20124;-82
2022/06/29 04:28:12;;;;;;;8.65;5.30;;;16.00;99.90;;;;;;5010540;28;20052;-81
2022/06/29 04:30:58;;;;;;;9.63;6.85;;;16.00;99.90;;;;;;4993626;28;20057;-82
2022/06/29 04:33:44;;;;;;;11.75;6.53;;;16.00;99.90;;;;;;4993612;28;20141;-82
2022/06/29 04:36:31;;;;;;;11.13;6.30;;;16.00;99.90;;;;;;5011267;28;20053;-81
2022/06/29 04:39:17;;;;;;;10.23;6.28;;;16.00;99.90;;;;;;5010684;28;20104;-81
2022/06/29 04:42:04;;;;;;;11.38;6.25;;;16.00;99.90;;;;;;5011159;28;20055;-82
2022/06/29 04:44:50;;;;;;;11.30;6.75;;;16.10;99.90;;;;;;4992705;28;20557;-81
2022/06/29 04:47:36;;;;;;;8.90;6.68;;;16.10;99.90;;;;;;5010964;28;20499;-81
2022/06/29 04:50:22;;;;;;;6.93;5.60;;;16.20;99.90;;;;;;5010694;28;20060;-80
2022/06/29 04:53:08;;;;;;;7.88;6.20;;;16.30;99.90;;;;;;5010677;28;20038;-82
2022/06/29 04:55:55;;;;;;;10.55;5.82;;;16.40;99.90;;;;;;5010695;28;20046;-81
2022/06/29 04:58:41;;;;;;;10.75;5.82;;;16.40;99.90;;;;;;5010766;28;20144;-80
2022/06/29 05:01:30;;;;;;;8.43;5.28;;;16.50;99.90;;;;;;5009636;28;20108;-81
2022/06/29 05:04:16;;;;;;;10.55;6.07;;;16.50;99.90;;;;;;4993450;28;20204;-81
2022/06/29 05:07:02;;;;;;;8.30;6.32;;;16.70;99.90;;;;;;4992559;28;20524;-81
2022/06/29 05:09:48;;;;;;;9.80;5.65;;;16.80;99.90;;;;;;5010218;28;20061;-81
2022/06/29 05:12:38;;;;;;;10.73;6.57;;;16.90;99.90;;;;;;4996694;28;20050;-81
2022/06/29 05:15:24;;;;;;;9.85;5.32;;;17.00;99.90;;;;;;5010470;28;20046;-79
2022/06/29 05:18:10;;;;;;;7.93;5.43;;;17.10;99.90;;;;;;4993999;28;20168;-81
2022/06/29 05:20:56;;;;;;;8.13;5.90;;;17.20;99.90;;;;;;5010337;28;20057;-82
2022/06/29 05:23:44;;;;;;;9.45;5.43;;;17.20;99.90;;;;;;5010126;28;20769;-82
2022/06/29 05:26:30;;;;;;;7.85;4.90;;;17.30;99.90;;;;;;5010679;28;20065;-82
2022/06/29 05:29:17;;;;;;;10.63;5.88;;;17.30;99.90;;;;;;4979700;28;20050;-83
2022/06/29 05:32:03;;;;;;;9.13;6.30;;;17.30;99.90;;;;;;5011638;28;20069;-82
2022/06/29 05:34:49;;;;;;;7.97;5.97;;;17.40;99.90;;;;;;5011070;28;20069;-82
2022/06/29 05:37:36;;;;;;;8.35;5.95;;;17.40;99.90;;;;;;4993687;28;20140;-81
2022/06/29 05:40:22;;;;;;;9.95;6.85;;;17.60;99.90;;;;;;4993635;28;20046;-81
2022/06/29 05:43:09;;;;;;;15.57;5.88;;;17.70;99.90;;;;;;5009831;28;20129;-81
2022/06/29 05:45:55;;;;;;;7.43;4.88;;;17.80;99.90;;;;;;4992762;28;20061;-82
2022/06/29 05:48:41;;;;;;;7.18;5.43;;;17.70;99.90;;;;;;4992841;28;20112;-81
2022/06/29 05:51:27;;;;;;;8.10;5.82;;;17.80;99.90;;;;;;5009959;28;20080;-81
2022/06/29 05:54:13;;;;;;;10.07;5.80;;;17.70;99.90;;;;;;4979269;28;20440;-81
2022/06/29 05:57:00;;;;;;;8.52;5.57;;;17.80;99.90;;;;;;5010314;28;20046;-81
2022/06/29 05:59:47;;;;;;;10.30;5.70;;;17.80;99.90;;;;;;4993032;28;20398;-81
2022/06/29 06:02:33;;;;;;;10.68;5.60;;;17.70;99.90;;;;;;4990918;28;20490;-83
2022/06/29 06:05:19;;;;;;;7.80;5.10;;;17.70;99.90;;;;;;4990623;28;20054;-81
2022/06/29 06:08:05;;;;;;;8.48;5.25;;;17.80;99.90;;;;;;4976758;28;20058;-83
2022/06/29 06:10:52;;;;;;;7.05;4.82;;;18.00;99.90;;;;;;4994552;28;20486;-83
2022/06/29 06:13:38;;;;;;;8.57;4.90;;;18.10;99.90;;;;;;4994158;28;20046;-84
2022/06/29 06:16:24;;;;;;;8.32;5.18;;;18.30;99.90;;;;;;4993194;28;20086;-82
2022/06/29 06:19:11;;;;;;;8.23;4.90;;;18.40;99.90;;;;;;4995059;28;20069;-81
2022/06/29 06:21:58;;;;;;;9.50;4.80;;;18.50;99.90;;;;;;4976748;28;20088;-86
2022/06/29 06:24:44;;;;;;;7.97;4.82;;;18.50;99.90;;;;;;4993266;28;20502;-82
2022/06/29 06:27:30;;;;;;;7.20;4.07;;;18.60;99.90;;;;;;4993320;28;20517;-84
2022/06/29 06:30:16;;;;;;;6.45;3.92;;;18.70;99.90;;;;;;4988278;28;20047;-85
2022/06/29 06:33:03;;;;;;;5.97;4.20;;;19.00;99.90;;;;;;4992776;28;20100;-84
2022/06/29 06:35:49;;;;;;;8.60;4.13;;;19.20;99.90;;;;;;4977102;28;20043;-85
2022/06/29 06:38:36;;;;;;;7.28;3.95;;;19.40;99.90;;;;;;4994956;28;20062;-84
2022/06/29 06:41:22;;;;;;;6.20;3.90;;;19.70;99.90;;;;;;4993561;28;20388;-85
2022/06/29 06:44:09;;;;;;;8.90;3.90;;;19.80;99.90;;;;;;4977171;28;20042;-89
2022/06/29 06:46:56;;;;;;;6.10;3.90;;;19.90;99.90;;;;;;4993562;28;20054;-85
2022/06/29 06:49:42;;;;;;;6.80;3.60;;;20.20;99.90;;;;;;4976240;28;20085;-85
2022/06/29 06:52:29;;;;;;;7.80;2.95;;;20.30;99.90;;;;;;4993297;28;20042;-77
2022/06/29 06:55:16;;;;;;;4.25;2.70;;;20.40;99.90;;;;;;4976123;28;20058;-80
2022/06/29 06:58:02;;;;;;;6.63;2.60;;;20.50;99.90;;;;;;4975976;28;20050;-79
2022/06/29 07:00:48;;;;;;;5.30;3.22;;;20.60;99.90;;;;;;4976312;28;20054;-80
2022/06/29 07:03:38;;;;;;;6.80;2.70;;;20.80;99.90;;;;;;4993405;28;20133;-79
2022/06/29 07:06:24;;;;;;;6.25;3.22;;;20.90;99.90;;;;;;4992613;28;20455;-77
2022/06/29 07:09:12;;;;;;;5.72;2.70;;;21.10;99.90;;;;;;4990795;28;20086;-76
2022/06/29 07:11:58;;;;;;;7.53;2.90;;;21.20;99.90;;;;;;4992535;28;20046;-77
2022/06/29 07:14:44;;;;;;;7.97;2.58;;;21.40;99.90;;;;;;4971597;28;20081;-82
2022/06/29 07:17:30;;;;;;;4.95;2.65;;;21.50;99.90;;;;;;4970941;28;20517;-82
2022/06/29 07:20:16;;;;;;;9.13;2.88;;;21.70;99.90;;;;;;4974275;28;20050;-79
2022/06/29 07:23:03;;;;;;;10.55;3.42;;;21.80;99.90;;;;;;4961314;28;20057;-82
2022/06/29 07:25:49;;;;;;;6.85;3.38;;;21.90;99.90;;;;;;4992524;28;20062;-80
2022/06/29 07:28:35;;;;;;;9.65;3.00;;;22.00;99.90;;;;;;4961795;28;20422;-81
2022/06/29 07:31:21;;;;;;;5.82;2.70;;;22.20;99.90;;;;;;4992074;28;20434;-79
2022/06/29 07:34:07;;;;;;;5.65;2.58;;;22.30;99.90;;;;;;4974778;28;20058;-78
2022/06/29 07:36:53;;;;;;;5.90;2.50;;;22.50;99.90;;;;;;4973488;28;20049;-79
2022/06/29 07:39:40;;;;;;;5.47;2.30;;;22.60;99.90;;;;;;4973544;28;20151;-80
2022/06/29 07:42:26;;;;;;;5.90;2.40;;;22.80;99.90;;;;;;4973088;28;20054;-78
2022/06/29 07:45:12;;;;;;;6.50;3.45;;;22.70;99.20;;;;;;4957339;28;20062;-79
2022/06/29 07:47:58;;;;;;;6.82;2.50;;;22.90;99.10;;;;;;4972960;28;20573;-80
2022/06/29 07:50:44;;;;;;;6.90;2.15;;;23.00;99.00;;;;;;4972405;28;20074;-77
2022/06/29 07:53:31;;;;;;;4.28;2.10;;;23.20;98.80;;;;;;4955696;28;20055;-80
2022/06/29 07:56:17;;;;;;;7.40;2.45;;;23.20;98.00;;;;;;4955599;28;20138;-78
2022/06/29 07:59:03;;;;;;;8.52;2.15;;;23.50;98.40;;;;;;4971914;28;20051;-80
2022/06/29 08:01:49;;;;;;;3.60;1.83;;;23.70;98.60;;;;;;4954214;28;20055;-77
2022/06/29 08:04:35;;;;;;;6.22;1.42;;;24.00;98.50;;;;;;4991826;28;20442;-80
2022/06/29 08:07:22;;;;;;;6.35;2.33;;;24.10;97.90;;;;;;4974495;28;20053;-77
2022/06/29 08:10:08;;;;;;;11.60;2.17;;;24.30;97.60;;;;;;4974700;28;20054;-76
2022/06/29 08:12:54;;;;;;;4.38;1.67;;;24.40;97.30;;;;;;4991424;28;20055;-80
2022/06/29 08:15:43;;;;;;;6.32;1.60;;;24.50;96.00;;;;;;4991180;28;20053;-78
2022/06/29 08:18:29;;;;;;;4.07;1.63;;;24.50;95.90;;;;;;4973418;28;20521;-80
2022/06/29 08:21:15;;;;;;;4.95;2.00;;;24.80;95.80;;;;;;4974159;28;20054;-82
2022/06/29 08:24:01;;;;;;;4.35;1.95;;;25.10;95.60;;;;;;4990456;28;20093;-86
2022/06/29 08:26:47;;;;;;;6.35;1.85;;;25.10;95.10;;;;;;4990816;28;20082;-81
2022/06/29 08:29:33;;;;;;;2.35;1.10;;;25.30;95.20;;;;;;4991035;28;20486;-80
2022/06/29 08:32:20;;;;;;;4.38;1.23;;;25.40;95.50;;;;;;4973787;28;20468;-81
2022/06/29 08:35:07;;;;;;;5.07;1.67;;;25.60;94.20;;;;;;4974291;28;20161;-80
2022/06/29 08:37:53;;;;;;;3.20;1.38;;;25.60;93.40;;;;;;4991679;28;20130;-79
2022/06/29 08:40:47;;;;;;;6.45;1.42;;;25.70;92.60;;;;;;4990345;28;20047;-82
2022/06/29 08:43:33;;;;;;;3.78;1.20;;;26.00;93.30;;;;;;4990886;28;20499;-82
2022/06/29 08:46:19;;;;;;;5.68;1.20;;;26.20;93.30;;;;;;4973643;28;20054;-81
2022/06/29 08:49:06;;;;;;;6.65;1.45;;;26.20;91.60;;;;;;4991670;28;20056;-82
2022/06/29 08:51:55;;;;;;;4.95;1.58;;;26.20;91.40;;;;;;4973460;28;20509;-80
2022/06/29 08:54:43;;;;;;;4.93;1.35;;;26.30;91.30;;;;;;4991553;28;20054;-80
2022/06/29 08:57:30;;;;;;;3.50;1.13;;;26.50;91.50;;;;;;4964503;28;20933;-82
2022/06/29 09:00:18;;;;;;;4.03;1.20;;;26.70;91.90;;;;;;4976933;28;20457;-81
2022/06/29 09:03:04;;;;;;;3.83;1.10;;;26.90;91.40;;;;;;4973729;28;20061;-79
2022/06/29 09:05:56;;;;;;;3.00;0.98;;;26.90;90.40;;;;;;4990071;28;20061;-81
2022/06/29 09:08:42;;;;;;;4.38;0.82;;;27.10;89.90;;;;;;4974275;28;20450;-79
2022/06/29 09:11:29;;;;;;;6.63;1.70;;;27.10;89.20;;;;;;4974227;28;20046;-77
2022/06/29 09:14:18;;;;;;;5.25;1.42;;;27.10;89.30;;;;;;4990951;28;20113;-79
2022/06/29 09:17:04;;;;;;;9.48;1.85;;;27.30;89.10;;;;;;4991042;28;20050;-79
2022/06/29 09:19:53;;;;;;;4.10;1.20;;;27.30;88.60;;;;;;4960228;28;20058;-78
2022/06/29 09:22:51;;;;;;;13.05;2.00;;;27.30;88.60;;;;;;4991791;28;20541;-78
2022/06/29 09:25:41;;;;;;;6.60;1.17;;;27.50;88.30;;;;;;4974250;28;20537;-80
2022/06/29 09:28:31;;;;;;;4.63;1.48;;;27.50;85.70;;;;;;4961799;28;20501;-81
2022/06/29 09:31:17;;;;;;;3.85;1.20;;;27.80;85.40;;;;;;4991099;28;20459;-81
2022/06/29 09:34:33;;;;;;;3.95;1.30;;;27.90;83.80;;;;;;4974074;28;20402;-81
2022/06/29 09:37:22;;;;;;;3.95;1.20;;;28.30;83.00;;;;;;4984331;28;20861;-80
2022/06/29 09:40:09;;;;;;;5.50;1.20;;;28.40;84.60;;;;;;4986479;28;20042;-80
2022/06/29 09:42:55;;;;;;;4.28;1.70;;;28.40;80.20;;;;;;4977038;28;20046;-81
2022/06/29 09:45:43;;;;;;;3.13;1.30;;;28.30;82.70;;;;;;4989342;28;20057;-81
2022/06/29 09:48:30;;;;;;;4.57;1.88;;;28.20;84.50;;;;;;4958064;28;20051;-81
2022/06/29 09:51:32;;;;;;;6.78;1.60;;;28.20;83.20;;;;;;4987102;28;20045;-80
2022/06/29 09:54:21;;;;;;;4.28;1.55;;;28.10;81.20;;;;;;4977122;28;20050;-82
2022/06/29 09:57:08;;;;;;;6.00;1.30;;;28.50;83.70;;;;;;4980440;28;20042;-79
2022/06/29 10:03:08;;;;;;;5.35;1.48;;;28.90;80.50;;;;;;4994253;28;20510;-82
2022/06/29 10:05:55;;;;;;;4.13;1.60;;;28.90;80.60;;;;;;4993119;28;20403;-84
2022/06/29 10:08:41;;;;;;;4.38;1.95;;;28.70;78.70;;;;;;4993897;28;20395;-83
2022/06/29 10:15:12;;;;;;;3.97;1.25;;;28.60;79.20;;;;;;4994677;28;20150;-82
2022/06/29 10:18:12;;;;;;;4.78;1.30;;;28.80;80.20;;;;;;4977469;28;20046;-83
2022/06/29 10:20:59;;;;;;;3.35;1.55;;;28.80;76.00;;;;;;4964100;28;20054;-86
2022/06/29 10:23:47;;;;;;;4.32;1.38;;;29.00;76.40;;;;;;4952673;28;20745;-81
2022/06/29 10:26:36;;;;;;;6.25;1.48;;;29.20;75.30;;;;;;4972968;28;20051;-85
2022/06/29 10:29:22;;;;;;;5.85;1.92;;;29.40;75.00;;;;;;4976866;28;20050;-79
2022/06/29 10:32:12;;;;;;;7.18;2.05;;;29.60;73.70;;;;;;4991772;28;20133;-80
2022/06/29 10:35:06;;;;;;;5.68;1.35;;;30.00;72.00;;;;;;4994334;28;20050;-82
2022/06/29 10:37:54;;;;;;;9.93;1.75;;;30.00;70.90;;;;;;4993169;28;20047;-79
2022/06/29 10:43:07;;;;;;;3.10;1.20;;;30.30;73.10;;;;;;4994291;28;20113;-80
2022/06/29 10:44:17;;;;;;;3.10;1.52;;;30.50;69.80;;;;;;4993670;28;20559;-83
2022/06/29 10:47:03;;;;;;;5.40;1.42;;;30.70;71.50;;;;;;4976333;28;20047;-80
2022/06/29 10:50:12;;;;;;;4.65;1.90;;;30.80;68.20;;;;;;4978258;28;20073;-82
2022/06/29 10:53:03;;;;;;;4.03;1.38;;;30.80;66.60;;;;;;4967086;28;20043;-80
2022/06/29 10:55:52;;;;;;;3.22;1.30;;;30.90;64.20;;;;;;4969654;28;20050;-81
2022/06/29 10:58:38;;;;;;;4.22;1.25;;;30.80;61.10;;;;;;4989419;28;20051;-80
2022/06/29 11:01:24;;;;;;;3.05;1.25;;;31.00;60.90;;;;;;4993007;28;20050;-78
2022/06/29 11:04:20;;;;;;;6.38;1.33;;;30.90;60.20;;;;;;4993140;28;20130;-79
2022/06/29 11:13:29;;;;;;;4.10;1.45;;;31.40;58.40;;;;;;4976369;28;20050;-85
2022/06/29 11:16:15;;;;;;;4.63;1.08;;;31.60;58.70;;;;;;4979711;28;20058;-83
2022/06/29 11:19:02;;;;;;;12.25;1.63;;;31.80;56.40;;;;;;4992905;28;20129;-82
2022/06/29 11:22:10;;;;;;;4.10;1.45;;;32.00;56.50;;;;;;4994756;28;20125;-82
2022/06/29 11:24:59;;;;;;;7.32;2.13;;;32.30;55.70;;;;;;4990551;28;20086;-89
2022/06/29 11:27:46;;;;;;;2.42;1.00;;;32.50;55.10;;;;;;4992657;28;20066;-86
2022/06/29 11:30:32;;;;;;;3.70;1.42;;;32.70;54.30;;;;;;4963497;28;20050;-86
2022/06/29 11:33:18;;;;;;;3.15;1.27;;;32.80;52.10;;;;;;4975846;28;20082;-82
2022/06/29 11:36:08;;;;;;;2.40;1.10;;;32.80;51.10;;;;;;4962927;28;20042;-84
2022/06/29 11:38:57;;;;;;;3.15;1.30;;;32.60;50.20;;;;;;4976552;28;20109;-91
2022/06/29 11:45:06;;;;;;;3.05;1.10;;;32.10;48.70;;;;;;4992828;28;20063;-81
2022/06/29 11:47:53;;;;;;;3.72;1.23;;;32.20;49.20;;;;;;4975483;28;20073;-81
2022/06/29 11:50:47;;;;;;;5.05;1.20;;;32.30;48.50;;;;;;4993222;28;20060;-80
2022/06/29 11:53:47;;;;;;;2.97;1.23;;;32.50;50.10;;;;;;4976233;28;20056;-84
2022/06/29 11:56:33;;;;;;;4.22;1.33;;;32.80;48.50;;;;;;4975433;28;20387;-86
2022/06/29 11:59:20;;;;;;;3.50;1.10;;;33.10;49.10;;;;;;4992791;28;20137;-81
2022/06/29 12:02:07;;;;;;;3.72;1.10;;;33.10;47.40;;;;;;4991996;28;20062;-81
2022/06/29 12:05:00;;;;;;;4.47;1.38;;;33.20;48.10;;;;;;4985851;28;20388;-81
2022/06/29 12:07:46;;;;;;;5.00;1.33;;;33.40;46.20;;;;;;4991014;28;20141;-83
2022/06/29 12:10:32;;;;;;;2.20;1.00;;;33.70;47.20;;;;;;4972212;28;20464;-79
2022/06/29 12:13:19;;;;;;;3.67;1.00;;;34.00;46.70;;;;;;4961449;28;20491;-82
2022/06/29 12:16:05;;;;;;;5.50;1.10;;;34.00;46.10;;;;;;4971141;28;20494;-81
2022/06/29 12:18:51;;;;;;;2.33;1.10;;;34.20;46.50;;;;;;4990520;28;20050;-85
2022/06/29 12:21:37;;;;;;;3.97;1.30;;;34.40;47.40;;;;;;4972881;28;20626;-81
2022/06/29 12:24:25;;;;;;;4.68;1.02;;;34.70;47.00;;;;;;4974437;28;20061;-86
2022/06/29 12:27:11;;;;;;;2.42;1.10;;;34.50;45.40;;;;;;4950677;28;20414;-81
2022/06/29 12:29:57;;;;;;;4.40;1.30;;;34.50;45.50;;;;;;4988113;28;20049;-83
2022/06/29 12:32:43;;;;;;;2.60;1.10;;;34.70;46.00;;;;;;4991185;28;20054;-81
2022/06/29 12:35:29;;;;;;;2.38;0.90;;;34.90;45.50;;;;;;4974396;28;20076;-82
2022/06/29 12:38:15;;;;;;;2.08;0.82;;;35.20;44.60;;;;;;4991016;28;20079;-79
2022/06/29 12:41:01;;;;;;;1.77;0.90;;;35.20;43.40;;;;;;4991816;28;20066;-80
2022/06/29 12:43:47;;;;;;;3.75;1.30;;;35.30;43.40;;;;;;4973532;28;20053;-88
2022/06/29 12:46:34;;;;;;;4.50;1.13;;;35.20;43.50;;;;;;4973316;28;20046;-83
2022/06/29 12:49:21;;;;;;;2.05;0.90;;;35.40;42.90;;;;;;4982055;28;20623;-80
2022/06/29 12:52:07;;;;;;;1.50;0.70;;;35.40;42.40;;;;;;4990638;28;20046;-77
2022/06/29 12:54:53;;;;;;;2.60;1.40;;;35.40;43.10;;;;;;4991352;28;20042;-79
2022/06/29 12:57:40;;;;;;;2.67;0.98;;;35.90;43.60;;;;;;4973890;28;20101;-79
2022/06/29 13:00:27;;;;;;;36.60;5.53;;;35.80;43.30;;;;;;4990108;28;20059;-78
2022/06/29 13:03:14;;;;;;;6.50;1.50;;;35.80;41.60;;;;;;4961787;28;20046;-79
2022/06/29 13:06:00;;;;;;;4.35;1.02;;;36.00;41.00;;;;;;4973873;28;20057;-79
2022/06/29 13:08:46;;;;;;;2.78;0.80;;;35.90;40.60;;;;;;4977255;28;20490;-79
2022/06/29 13:11:35;;;;;;;2.55;0.82;;;36.20;40.10;;;;;;4991056;28;20222;-80
2022/06/29 13:14:21;;;;;;;1.90;0.70;;;36.10;39.90;;;;;;4991369;28;20129;-81
2022/06/29 13:17:07;;;;;;;2.13;0.90;;;36.30;40.50;;;;;;4978407;28;20141;-83
2022/06/29 13:19:55;;;;;;;2.95;1.00;;;36.40;39.50;;;;;;4978233;28;20089;-82
2022/06/29 13:22:42;;;;;;;2.53;0.82;;;36.20;39.30;;;;;;4995044;28;20129;-76
2022/06/29 13:25:28;;;;;;;1.90;0.85;;;36.40;39.90;;;;;;4995507;28;20081;-77
2022/06/29 13:28:14;;;;;;;3.65;1.23;;;36.50;39.40;;;;;;4994646;28;20141;-72
2022/06/29 13:35:02;;;;;;;4.20;1.23;;;36.30;38.70;;;;;;4995207;28;20116;-81
2022/06/29 13:37:48;;;;;;;3.90;1.08;;;36.50;39.40;;;;;;4977378;28;20137;-76
2022/06/29 13:40:34;;;;;;;3.60;1.23;;;36.70;38.10;;;;;;4974538;28;20078;-76
2022/06/29 13:43:20;;;;;;;2.50;1.20;;;36.90;39.00;;;;;;4978276;28;20081;-75
2022/06/29 13:46:06;;;;;;;5.53;1.50;;;37.00;39.20;;;;;;4992472;28;20050;-76
2022/06/29 13:48:52;;;;;;;4.13;1.23;;;36.10;38.20;;;;;;4974691;28;20057;-78
2022/06/29 13:51:39;;;;;;;2.08;1.10;;;35.60;39.20;;;;;;4993787;28;20050;-76
2022/06/29 13:54:25;;;;;;;4.15;1.75;;;35.70;39.60;;;;;;4989220;28;20046;-78
2022/06/29 13:57:11;;;;;;;4.63;1.63;;;35.70;40.20;;;;;;4991188;28;20057;-75
2022/06/29 13:59:57;;;;;;;3.75;1.80;;;36.50;41.90;;;;;;4976994;28;20050;-76
2022/06/29 14:02:43;;;;;;;3.15;1.40;;;36.50;40.80;;;;;;4977104;28;20391;-77
2022/06/29 14:05:30;;;;;;;3.05;1.60;;;36.70;39.80;;;;;;4994806;28;20058;-77
2022/06/29 14:08:16;;;;;;;3.25;2.20;;;36.50;39.30;;;;;;4995163;28;20050;-73
2022/06/29 14:11:02;;;;;;;3.00;1.65;;;36.80;39.50;;;;;;4994637;28;20085;-80
2022/06/29 14:13:48;;;;;;;4.43;1.70;;;37.50;39.60;;;;;;4976984;28;20050;-74
2022/06/29 14:16:35;;;;;;;3.10;1.48;;;37.20;39.00;;;;;;4976789;28;20054;-80
2022/06/29 14:19:21;;;;;;;3.88;1.67;;;37.30;38.50;;;;;;4994385;28;20409;-75
2022/06/29 14:22:07;;;;;;;4.03;1.60;;;37.50;39.20;;;;;;4993945;28;20196;-74
2022/06/29 14:24:53;;;;;;;3.25;1.40;;;37.30;38.80;;;;;;4993391;28;20039;-77
2022/06/29 14:27:39;;;;;;;4.22;1.95;;;37.00;39.60;;;;;;4993088;28;20476;-84
2022/06/29 14:30:26;;;;;;;5.25;1.90;;;36.60;40.40;;;;;;4993824;28;20054;-73
2022/06/29 14:33:12;;;;;;;6.65;1.98;;;36.90;41.00;;;;;;4976292;28;20401;-73
2022/06/29 14:35:58;;;;;;;2.65;1.60;;;37.30;40.20;;;;;;4994441;28;20046;-74
2022/06/29 14:38:46;;;;;;;4.85;2.10;;;37.10;40.60;;;;;;4976890;28;20834;-75
2022/06/29 14:41:32;;;;;;;4.18;1.98;;;37.00;40.20;;;;;;4976439;28;20100;-76
2022/06/29 14:44:18;;;;;;;4.00;2.08;;;36.80;39.80;;;;;;4993275;28;20064;-76
2022/06/29 14:47:04;;;;;;;3.45;1.70;;;36.80;40.60;;;;;;4965907;28;20042;-78
2022/06/29 14:49:51;;;;;;;3.45;1.77;;;36.60;40.50;;;;;;4979130;28;20145;-75
2022/06/29 14:52:37;;;;;;;3.80;1.90;;;35.90;40.00;;;;;;4993276;28;20130;-75
2022/06/29 14:55:24;;;;;;;4.72;2.22;;;35.60;40.60;;;;;;4976520;28;20061;-76